sensor_id;sensor_type;location;lat;lon;timestamp;temperature;humidity
1391;DHT22;690;51.454;7.194;2022-12-10T00:00:33;2.80;1.00
1391;DHT22;690;51.454;7.194;2022-12-10T00:03:01;2.80;1.00
1391;DHT22;690;51.454;7.194;2022-12-10T00:05:28;2.70;1.00
1391;DHT22;690;51.454;7.194;2022-12-10T00:07:55;2.70;1.00
1391;DHT22;690;51.454;7.194;2022-12-10T00:10:22;2.70;1.00
1391;DHT22;690;51.454;7.194;2022-12-10T00:12:49;2.70;1.00
1391;DHT22;690;51.454;7.194;2022-12-10T00:15:16;2.60;1.00
1391;DHT22;690;51.454;7.194;2022-12-10T00:17:43;2.60;1.00
1391;DHT22;690;51.454;7.194;2022-12-10T00:20:11;2.60;1.00
1391;DHT22;690;51.454;7.194;2022-12-10T00:22:38;2.60;1.00
1391;DHT22;690;51.454;7.194;2022-12-10T00:25:05;2.50;1.00
1391;DHT22;690;51.454;7.194;2022-12-10T00:27:32;2.50;1.00
1391;DHT22;690;51.454;7.194;2022-12-10T00:29:59;2.50;1.00
1391;DHT22;690;51.454;7.194;2022-12-10T00:32:26;2.50;1.00
1391;DHT22;690;51.454;7.194;2022-12-10T00:34:52;2.50;1.00
1391;DHT22;690;51.454;7.194;2022-12-10T00:37:21;2.50;1.00
1391;DHT22;690;51.454;7.194;2022-12-10T00:39:48;2.50;1.00
1391;DHT22;690;51.454;7.194;2022-12-10T00:42:15;2.50;1.00
1391;DHT22;690;51.454;7.194;2022-12-10T00:44:42;2.50;1.00
1391;DHT22;690;51.454;7.194;2022-12-10T00:47:09;2.50;1.00
1391;DHT22;690;51.454;7.194;2022-12-10T00:49:35;2.50;1.00
1391;DHT22;690;51.454;7.194;2022-12-10T00:52:02;2.50;1.00
1391;DHT22;690;51.454;7.194;2022-12-10T00:54:31;2.50;1.00
1391;DHT22;690;51.454;7.194;2022-12-10T00:56:57;2.50;1.00
1391;DHT22;690;51.454;7.194;2022-12-10T00:59:24;2.50;1.00
1391;DHT22;690;51.454;7.194;2022-12-10T01:01:51;2.40;1.00
1391;DHT22;690;51.454;7.194;2022-12-10T01:04:18;2.40;1.00
1391;DHT22;690;51.454;7.194;2022-12-10T01:06:47;2.40;1.00
1391;DHT22;690;51.454;7.194;2022-12-10T01:09:16;2.40;1.00
1391;DHT22;690;51.454;7.194;2022-12-10T01:11:46;2.40;1.00
1391;DHT22;690;51.454;7.194;2022-12-10T01:14:15;2.40;1.00
1391;DHT22;690;51.454;7.194;2022-12-10T01:16:43;2.50;1.00
1391;DHT22;690;51.454;7.194;2022-12-10T01:19:11;2.50;1.00
1391;DHT22;690;51.454;7.194;2022-12-10T01:21:38;2.50;1.00
1391;DHT22;690;51.454;7.194;2022-12-10T01:24:05;2.50;1.00
1391;DHT22;690;51.454;7.194;2022-12-10T01:26:34;2.50;1.00
1391;DHT22;690;51.454;7.194;2022-12-10T01:29:03;2.50;1.00
1391;DHT22;690;51.454;7.194;2022-12-10T01:31:34;2.50;5.30
1391;DHT22;690;51.454;7.194;2022-12-10T01:34:02;2.50;1.00
1391;DHT22;690;51.454;7.194;2022-12-10T01:36:32;2.50;1.00
1391;DHT22;690;51.454;7.194;2022-12-10T01:39:00;2.50;22.40
1391;DHT22;690;51.454;7.194;2022-12-10T01:41:30;2.50;57.50
1391;DHT22;690;51.454;7.194;2022-12-10T01:43:59;2.50;95.80
1391;DHT22;690;51.454;7.194;2022-12-10T01:46:29;2.60;99.90
1391;DHT22;690;51.454;7.194;2022-12-10T01:48:57;2.60;99.90
1391;DHT22;690;51.454;7.194;2022-12-10T01:51:28;2.60;99.90
1391;DHT22;690;51.454;7.194;2022-12-10T01:53:55;2.70;99.90
1391;DHT22;690;51.454;7.194;2022-12-10T01:56:22;2.70;96.50
1391;DHT22;690;51.454;7.194;2022-12-10T01:58:51;2.60;38.60
1391;DHT22;690;51.454;7.194;2022-12-10T02:01:26;2.60;99.90
1391;DHT22;690;51.454;7.194;2022-12-10T02:04:04;2.50;99.90
1391;DHT22;690;51.454;7.194;2022-12-10T02:06:53;2.70;99.90
1391;DHT22;690;51.454;7.194;2022-12-10T02:09:27;2.70;99.90
1391;DHT22;690;51.454;7.194;2022-12-10T02:12:04;2.70;99.90
1391;DHT22;690;51.454;7.194;2022-12-10T02:14:39;2.70;99.90
1391;DHT22;690;51.454;7.194;2022-12-10T02:17:16;2.70;99.90
1391;DHT22;690;51.454;7.194;2022-12-10T02:19:56;2.70;99.90
1391;DHT22;690;51.454;7.194;2022-12-10T02:22:26;2.80;99.90
1391;DHT22;690;51.454;7.194;2022-12-10T02:24:56;2.80;99.90
1391;DHT22;690;51.454;7.194;2022-12-10T02:27:28;2.80;99.90
1391;DHT22;690;51.454;7.194;2022-12-10T02:29:58;2.80;99.90
1391;DHT22;690;51.454;7.194;2022-12-10T02:32:31;2.80;99.90
1391;DHT22;690;51.454;7.194;2022-12-10T02:35:03;2.80;99.90
1391;DHT22;690;51.454;7.194;2022-12-10T02:37:33;2.90;99.90
1391;DHT22;690;51.454;7.194;2022-12-10T02:40:04;2.90;99.90
1391;DHT22;690;51.454;7.194;2022-12-10T02:42:37;2.90;99.90
1391;DHT22;690;51.454;7.194;2022-12-10T02:45:07;2.90;99.90
1391;DHT22;690;51.454;7.194;2022-12-10T02:47:34;3.00;99.90
1391;DHT22;690;51.454;7.194;2022-12-10T02:50:02;3.00;99.90
1391;DHT22;690;51.454;7.194;2022-12-10T02:52:29;3.00;99.90
1391;DHT22;690;51.454;7.194;2022-12-10T02:54:56;3.10;99.90
1391;DHT22;690;51.454;7.194;2022-12-10T02:57:28;3.10;99.90
1391;DHT22;690;51.454;7.194;2022-12-10T03:00:06;3.20;99.90
1391;DHT22;690;51.454;7.194;2022-12-10T03:02:42;3.20;99.90
1391;DHT22;690;51.454;7.194;2022-12-10T03:05:15;3.20;99.90
1391;DHT22;690;51.454;7.194;2022-12-10T03:07:48;3.20;49.30
1391;DHT22;690;51.454;7.194;2022-12-10T03:10:23;3.30;34.50
1391;DHT22;690;51.454;7.194;2022-12-10T03:12:56;3.30;1.00
1391;DHT22;690;51.454;7.194;2022-12-10T03:15:27;3.30;1.00
1391;DHT22;690;51.454;7.194;2022-12-10T03:17:57;3.30;1.00
1391;DHT22;690;51.454;7.194;2022-12-10T03:20:26;3.30;1.00
1391;DHT22;690;51.454;7.194;2022-12-10T03:22:53;3.40;1.00
1391;DHT22;690;51.454;7.194;2022-12-10T03:25:24;3.40;1.00
1391;DHT22;690;51.454;7.194;2022-12-10T03:27:54;3.40;1.00
1391;DHT22;690;51.454;7.194;2022-12-10T03:30:22;3.50;1.00
1391;DHT22;690;51.454;7.194;2022-12-10T03:32:51;3.50;1.00
1391;DHT22;690;51.454;7.194;2022-12-10T03:35:20;3.50;1.00
1391;DHT22;690;51.454;7.194;2022-12-10T03:37:49;3.50;1.00
1391;DHT22;690;51.454;7.194;2022-12-10T03:40:19;3.50;1.00
1391;DHT22;690;51.454;7.194;2022-12-10T03:42:46;3.50;1.00
1391;DHT22;690;51.454;7.194;2022-12-10T03:45:13;3.50;1.00
1391;DHT22;690;51.454;7.194;2022-12-10T03:47:41;3.60;1.00
1391;DHT22;690;51.454;7.194;2022-12-10T03:50:10;3.60;1.00
1391;DHT22;690;51.454;7.194;2022-12-10T03:52:36;3.60;1.00
1391;DHT22;690;51.454;7.194;2022-12-10T03:55:04;3.60;1.00
1391;DHT22;690;51.454;7.194;2022-12-10T03:57:32;3.60;1.00
1391;DHT22;690;51.454;7.194;2022-12-10T03:59:59;3.60;1.00
1391;DHT22;690;51.454;7.194;2022-12-10T04:02:26;3.60;1.00
1391;DHT22;690;51.454;7.194;2022-12-10T04:04:53;3.60;1.00
1391;DHT22;690;51.454;7.194;2022-12-10T04:07:21;3.60;1.00
1391;DHT22;690;51.454;7.194;2022-12-10T04:09:48;3.60;1.00
1391;DHT22;690;51.454;7.194;2022-12-10T04:12:15;3.50;1.00
1391;DHT22;690;51.454;7.194;2022-12-10T04:14:41;3.40;1.00
1391;DHT22;690;51.454;7.194;2022-12-10T04:17:26;3.40;1.00
1391;DHT22;690;51.454;7.194;2022-12-10T04:19:52;3.40;1.00
1391;DHT22;690;51.454;7.194;2022-12-10T04:22:21;3.40;1.00
1391;DHT22;690;51.454;7.194;2022-12-10T04:25:06;3.50;1.00
1391;DHT22;690;51.454;7.194;2022-12-10T04:27:50;3.40;1.00
1391;DHT22;690;51.454;7.194;2022-12-10T04:30:17;3.40;1.00
1391;DHT22;690;51.454;7.194;2022-12-10T04:32:44;3.50;99.90
1391;DHT22;690;51.454;7.194;2022-12-10T04:35:11;3.50;99.90
1391;DHT22;690;51.454;7.194;2022-12-10T04:37:39;3.50;99.90
1391;DHT22;690;51.454;7.194;2022-12-10T04:40:07;3.50;99.90
1391;DHT22;690;51.454;7.194;2022-12-10T04:42:34;3.50;99.90
1391;DHT22;690;51.454;7.194;2022-12-10T04:45:01;3.50;99.90
1391;DHT22;690;51.454;7.194;2022-12-10T04:47:28;3.50;99.90
1391;DHT22;690;51.454;7.194;2022-12-10T04:49:55;3.60;99.90
1391;DHT22;690;51.454;7.194;2022-12-10T04:52:22;3.60;99.90
1391;DHT22;690;51.454;7.194;2022-12-10T04:54:50;3.60;99.90
1391;DHT22;690;51.454;7.194;2022-12-10T04:57:17;3.60;99.90
1391;DHT22;690;51.454;7.194;2022-12-10T04:59:44;3.60;99.90
1391;DHT22;690;51.454;7.194;2022-12-10T05:02:10;3.60;99.90
1391;DHT22;690;51.454;7.194;2022-12-10T05:04:37;3.50;99.90
1391;DHT22;690;51.454;7.194;2022-12-10T05:07:04;3.50;99.90
1391;DHT22;690;51.454;7.194;2022-12-10T05:09:31;3.50;99.90
1391;DHT22;690;51.454;7.194;2022-12-10T05:11:59;3.50;99.90
1391;DHT22;690;51.454;7.194;2022-12-10T05:14:26;3.50;99.90
1391;DHT22;690;51.454;7.194;2022-12-10T05:16:53;3.50;99.90
1391;DHT22;690;51.454;7.194;2022-12-10T05:19:20;3.50;99.90
1391;DHT22;690;51.454;7.194;2022-12-10T05:21:48;3.40;99.90
1391;DHT22;690;51.454;7.194;2022-12-10T05:24:34;3.40;99.90
1391;DHT22;690;51.454;7.194;2022-12-10T05:27:03;3.30;99.90
1391;DHT22;690;51.454;7.194;2022-12-10T05:29:31;3.20;99.90
1391;DHT22;690;51.454;7.194;2022-12-10T05:31:58;3.20;99.90
1391;DHT22;690;51.454;7.194;2022-12-10T05:34:25;3.20;99.90
1391;DHT22;690;51.454;7.194;2022-12-10T05:36:52;3.20;92.50
1391;DHT22;690;51.454;7.194;2022-12-10T05:39:19;3.20;90.60
1391;DHT22;690;51.454;7.194;2022-12-10T05:41:46;3.20;68.00
1391;DHT22;690;51.454;7.194;2022-12-10T05:44:14;3.20;53.70
1391;DHT22;690;51.454;7.194;2022-12-10T05:46:41;3.20;36.70
1391;DHT22;690;51.454;7.194;2022-12-10T05:49:08;3.10;19.10
1391;DHT22;690;51.454;7.194;2022-12-10T05:51:36;3.00;4.50
1391;DHT22;690;51.454;7.194;2022-12-10T05:54:05;3.00;1.00
1391;DHT22;690;51.454;7.194;2022-12-10T05:56:35;2.90;1.00
1391;DHT22;690;51.454;7.194;2022-12-10T05:59:04;2.90;1.00
1391;DHT22;690;51.454;7.194;2022-12-10T06:01:34;2.80;1.00
1391;DHT22;690;51.454;7.194;2022-12-10T06:04:02;2.80;1.00
1391;DHT22;690;51.454;7.194;2022-12-10T06:06:31;2.80;1.00
1391;DHT22;690;51.454;7.194;2022-12-10T06:08:58;2.70;1.00
1391;DHT22;690;51.454;7.194;2022-12-10T06:11:26;2.60;1.00
1391;DHT22;690;51.454;7.194;2022-12-10T06:13:53;2.60;1.00
1391;DHT22;690;51.454;7.194;2022-12-10T06:16:21;2.50;1.00
1391;DHT22;690;51.454;7.194;2022-12-10T06:18:50;2.40;1.00
1391;DHT22;690;51.454;7.194;2022-12-10T06:21:18;2.40;1.00
1391;DHT22;690;51.454;7.194;2022-12-10T06:23:46;2.40;1.00
1391;DHT22;690;51.454;7.194;2022-12-10T06:26:14;2.40;1.00
1391;DHT22;690;51.454;7.194;2022-12-10T06:28:41;2.40;1.00
1391;DHT22;690;51.454;7.194;2022-12-10T06:31:10;2.30;1.00
1391;DHT22;690;51.454;7.194;2022-12-10T06:33:37;2.30;1.00
1391;DHT22;690;51.454;7.194;2022-12-10T06:36:07;2.20;1.00
1391;DHT22;690;51.454;7.194;2022-12-10T06:38:35;2.20;1.00
1391;DHT22;690;51.454;7.194;2022-12-10T06:41:04;2.10;1.00
1391;DHT22;690;51.454;7.194;2022-12-10T06:43:31;2.10;1.00
1391;DHT22;690;51.454;7.194;2022-12-10T06:45:58;2.00;1.00
1391;DHT22;690;51.454;7.194;2022-12-10T06:48:25;1.90;1.00
1391;DHT22;690;51.454;7.194;2022-12-10T06:50:52;1.90;1.00
1391;DHT22;690;51.454;7.194;2022-12-10T06:53:21;1.80;1.00
1391;DHT22;690;51.454;7.194;2022-12-10T06:55:47;1.80;1.00
1391;DHT22;690;51.454;7.194;2022-12-10T06:58:14;1.80;1.00
1391;DHT22;690;51.454;7.194;2022-12-10T07:00:41;1.70;1.00
1391;DHT22;690;51.454;7.194;2022-12-10T07:03:08;1.70;1.00
1391;DHT22;690;51.454;7.194;2022-12-10T07:05:35;1.70;1.00
1391;DHT22;690;51.454;7.194;2022-12-10T07:08:02;1.70;1.00
1391;DHT22;690;51.454;7.194;2022-12-10T07:10:30;1.80;1.00
1391;DHT22;690;51.454;7.194;2022-12-10T07:12:57;1.80;1.00
1391;DHT22;690;51.454;7.194;2022-12-10T07:15:24;1.80;1.00
1391;DHT22;690;51.454;7.194;2022-12-10T07:17:52;1.90;1.00
1391;DHT22;690;51.454;7.194;2022-12-10T07:20:19;1.90;1.00
1391;DHT22;690;51.454;7.194;2022-12-10T07:22:46;1.90;1.00
1391;DHT22;690;51.454;7.194;2022-12-10T07:25:13;1.90;1.00
1391;DHT22;690;51.454;7.194;2022-12-10T07:27:41;1.90;1.00
1391;DHT22;690;51.454;7.194;2022-12-10T07:30:10;1.90;1.00
1391;DHT22;690;51.454;7.194;2022-12-10T07:32:37;1.90;1.00
1391;DHT22;690;51.454;7.194;2022-12-10T07:35:04;2.00;1.00
1391;DHT22;690;51.454;7.194;2022-12-10T07:37:31;2.10;1.00
1391;DHT22;690;51.454;7.194;2022-12-10T07:39:59;2.00;1.00
1391;DHT22;690;51.454;7.194;2022-12-10T07:42:26;2.00;1.00
1391;DHT22;690;51.454;7.194;2022-12-10T07:44:54;2.10;1.00
1391;DHT22;690;51.454;7.194;2022-12-10T07:47:21;2.10;1.00
1391;DHT22;690;51.454;7.194;2022-12-10T07:49:48;2.10;1.00
1391;DHT22;690;51.454;7.194;2022-12-10T07:52:15;2.10;1.00
1391;DHT22;690;51.454;7.194;2022-12-10T07:54:42;2.10;1.00
1391;DHT22;690;51.454;7.194;2022-12-10T07:57:08;2.10;1.00
1391;DHT22;690;51.454;7.194;2022-12-10T07:59:35;2.20;1.00
1391;DHT22;690;51.454;7.194;2022-12-10T08:02:04;2.20;1.00
1391;DHT22;690;51.454;7.194;2022-12-10T08:04:30;2.20;1.00
1391;DHT22;690;51.454;7.194;2022-12-10T08:06:57;2.20;1.00
1391;DHT22;690;51.454;7.194;2022-12-10T08:09:24;2.20;1.00
1391;DHT22;690;51.454;7.194;2022-12-10T08:11:52;2.20;1.00
1391;DHT22;690;51.454;7.194;2022-12-10T08:14:19;2.20;1.00
1391;DHT22;690;51.454;7.194;2022-12-10T08:16:49;2.20;1.00
1391;DHT22;690;51.454;7.194;2022-12-10T08:19:17;2.20;1.00
1391;DHT22;690;51.454;7.194;2022-12-10T08:21:44;2.20;1.00
1391;DHT22;690;51.454;7.194;2022-12-10T08:24:11;2.20;1.00
1391;DHT22;690;51.454;7.194;2022-12-10T08:26:38;2.30;1.00
1391;DHT22;690;51.454;7.194;2022-12-10T08:29:05;2.30;1.00
1391;DHT22;690;51.454;7.194;2022-12-10T08:31:33;2.20;1.00
1391;DHT22;690;51.454;7.194;2022-12-10T08:34:00;2.20;1.00
1391;DHT22;690;51.454;7.194;2022-12-10T08:36:29;2.10;1.00
1391;DHT22;690;51.454;7.194;2022-12-10T08:38:59;2.10;1.00
1391;DHT22;690;51.454;7.194;2022-12-10T08:41:25;2.00;1.00
1391;DHT22;690;51.454;7.194;2022-12-10T08:43:52;1.90;1.00
1391;DHT22;690;51.454;7.194;2022-12-10T08:46:21;1.90;1.00
1391;DHT22;690;51.454;7.194;2022-12-10T08:48:49;1.80;1.00
1391;DHT22;690;51.454;7.194;2022-12-10T08:51:17;1.80;3.80
1391;DHT22;690;51.454;7.194;2022-12-10T08:53:46;1.80;24.40
1391;DHT22;690;51.454;7.194;2022-12-10T08:56:13;1.80;45.70
1391;DHT22;690;51.454;7.194;2022-12-10T08:58:40;1.90;64.00
1391;DHT22;690;51.454;7.194;2022-12-10T09:01:08;1.90;80.40
1391;DHT22;690;51.454;7.194;2022-12-10T09:03:36;1.90;77.70
1391;DHT22;690;51.454;7.194;2022-12-10T09:06:04;1.90;96.10
1391;DHT22;690;51.454;7.194;2022-12-10T09:08:32;1.90;99.90
1391;DHT22;690;51.454;7.194;2022-12-10T09:11:06;1.90;99.90
1391;DHT22;690;51.454;7.194;2022-12-10T09:13:33;1.90;99.90
1391;DHT22;690;51.454;7.194;2022-12-10T09:16:00;1.90;99.90
1391;DHT22;690;51.454;7.194;2022-12-10T09:18:27;2.00;99.90
1391;DHT22;690;51.454;7.194;2022-12-10T09:20:54;2.10;99.90
1391;DHT22;690;51.454;7.194;2022-12-10T09:23:21;2.10;99.90
1391;DHT22;690;51.454;7.194;2022-12-10T09:25:48;2.10;99.90
1391;DHT22;690;51.454;7.194;2022-12-10T09:28:16;2.20;99.90
1391;DHT22;690;51.454;7.194;2022-12-10T09:30:44;2.30;99.90
1391;DHT22;690;51.454;7.194;2022-12-10T09:33:11;2.40;1.00
1391;DHT22;690;51.454;7.194;2022-12-10T09:35:40;2.60;1.00
1391;DHT22;690;51.454;7.194;2022-12-10T09:38:08;2.70;1.00
1391;DHT22;690;51.454;7.194;2022-12-10T09:40:39;2.90;1.00
1391;DHT22;690;51.454;7.194;2022-12-10T09:43:14;2.90;99.90
1391;DHT22;690;51.454;7.194;2022-12-10T09:45:58;2.90;99.90
1391;DHT22;690;51.454;7.194;2022-12-10T09:48:40;2.80;99.90
1391;DHT22;690;51.454;7.194;2022-12-10T09:51:19;2.80;99.90
1391;DHT22;690;51.454;7.194;2022-12-10T09:53:48;2.80;99.90
1391;DHT22;690;51.454;7.194;2022-12-10T09:56:21;2.90;99.90
1391;DHT22;690;51.454;7.194;2022-12-10T09:58:49;2.90;99.90
1391;DHT22;690;51.454;7.194;2022-12-10T10:01:19;2.90;99.90
1391;DHT22;690;51.454;7.194;2022-12-10T10:03:47;2.90;99.90
1391;DHT22;690;51.454;7.194;2022-12-10T10:06:15;2.90;99.90
1391;DHT22;690;51.454;7.194;2022-12-10T10:08:45;2.90;99.90
1391;DHT22;690;51.454;7.194;2022-12-10T10:11:17;2.90;99.90
1391;DHT22;690;51.454;7.194;2022-12-10T10:13:48;2.90;99.90
1391;DHT22;690;51.454;7.194;2022-12-10T10:16:23;3.00;99.90
1391;DHT22;690;51.454;7.194;2022-12-10T10:18:56;3.00;99.90
1391;DHT22;690;51.454;7.194;2022-12-10T10:21:26;3.00;99.90
1391;DHT22;690;51.454;7.194;2022-12-10T10:23:55;3.00;99.90
1391;DHT22;690;51.454;7.194;2022-12-10T10:26:24;3.00;99.90
1391;DHT22;690;51.454;7.194;2022-12-10T10:28:56;3.00;99.90
1391;DHT22;690;51.454;7.194;2022-12-10T10:31:28;3.00;99.90
1391;DHT22;690;51.454;7.194;2022-12-10T10:33:58;3.00;99.90
1391;DHT22;690;51.454;7.194;2022-12-10T10:36:27;3.10;99.90
1391;DHT22;690;51.454;7.194;2022-12-10T10:38:55;3.10;99.90
1391;DHT22;690;51.454;7.194;2022-12-10T10:41:23;3.10;99.90
1391;DHT22;690;51.454;7.194;2022-12-10T10:43:58;3.10;99.90
1391;DHT22;690;51.454;7.194;2022-12-10T10:46:27;3.20;99.90
1391;DHT22;690;51.454;7.194;2022-12-10T10:49:13;3.20;99.90
1391;DHT22;690;51.454;7.194;2022-12-10T10:51:42;3.20;99.90
1391;DHT22;690;51.454;7.194;2022-12-10T10:54:10;3.30;99.90
1391;DHT22;690;51.454;7.194;2022-12-10T10:56:40;3.30;99.90
1391;DHT22;690;51.454;7.194;2022-12-10T10:59:26;3.30;99.90
1391;DHT22;690;51.454;7.194;2022-12-10T11:02:04;3.30;99.90
1391;DHT22;690;51.454;7.194;2022-12-10T11:04:46;3.30;99.90
1391;DHT22;690;51.454;7.194;2022-12-10T11:07:20;3.40;99.90
1391;DHT22;690;51.454;7.194;2022-12-10T11:09:48;3.30;99.90
1391;DHT22;690;51.454;7.194;2022-12-10T11:12:28;3.40;99.90
1391;DHT22;690;51.454;7.194;2022-12-10T11:14:55;3.40;99.90
1391;DHT22;690;51.454;7.194;2022-12-10T11:17:25;3.40;99.90
1391;DHT22;690;51.454;7.194;2022-12-10T11:19:58;3.40;99.90
1391;DHT22;690;51.454;7.194;2022-12-10T11:22:28;3.40;99.90
1391;DHT22;690;51.454;7.194;2022-12-10T11:24:56;3.40;99.90
1391;DHT22;690;51.454;7.194;2022-12-10T11:27:43;3.40;99.90
1391;DHT22;690;51.454;7.194;2022-12-10T11:30:15;3.40;99.90
1391;DHT22;690;51.454;7.194;2022-12-10T11:33:06;3.30;99.90
1391;DHT22;690;51.454;7.194;2022-12-10T11:35:48;3.30;99.90
1391;DHT22;690;51.454;7.194;2022-12-10T11:38:23;3.30;99.90
1391;DHT22;690;51.454;7.194;2022-12-10T11:40:57;3.30;99.90
1391;DHT22;690;51.454;7.194;2022-12-10T11:43:44;3.40;99.90
1391;DHT22;690;51.454;7.194;2022-12-10T11:49:14;3.40;99.90
1391;DHT22;690;51.454;7.194;2022-12-10T11:51:46;3.50;99.90
1391;DHT22;690;51.454;7.194;2022-12-10T11:54:48;3.50;99.90
1391;DHT22;690;51.454;7.194;2022-12-10T11:57:25;3.50;99.90
1391;DHT22;690;51.454;7.194;2022-12-10T12:00:00;3.50;99.90
1391;DHT22;690;51.454;7.194;2022-12-10T12:02:46;3.60;99.90
1391;DHT22;690;51.454;7.194;2022-12-10T12:05:27;3.60;99.90
1391;DHT22;690;51.454;7.194;2022-12-10T12:08:06;3.60;95.90
1391;DHT22;690;51.454;7.194;2022-12-10T12:13:40;3.60;90.30
1391;DHT22;690;51.454;7.194;2022-12-10T12:16:13;3.60;68.00
1391;DHT22;690;51.454;7.194;2022-12-10T12:18:46;3.60;68.60
1391;DHT22;690;51.454;7.194;2022-12-10T12:21:15;3.60;76.60
1391;DHT22;690;51.454;7.194;2022-12-10T12:23:47;3.60;81.10
1391;DHT22;690;51.454;7.194;2022-12-10T12:26:20;3.70;77.10
1391;DHT22;690;51.454;7.194;2022-12-10T12:28:52;3.70;57.10
1391;DHT22;690;51.454;7.194;2022-12-10T12:31:25;3.70;49.90
1391;DHT22;690;51.454;7.194;2022-12-10T12:33:59;3.70;36.50
1391;DHT22;690;51.454;7.194;2022-12-10T12:36:31;3.70;17.70
1391;DHT22;690;51.454;7.194;2022-12-10T12:39:04;3.70;27.30
1391;DHT22;690;51.454;7.194;2022-12-10T12:41:41;3.70;20.90
1391;DHT22;690;51.454;7.194;2022-12-10T12:44:17;3.70;27.40
1391;DHT22;690;51.454;7.194;2022-12-10T12:46:46;3.70;32.90
1391;DHT22;690;51.454;7.194;2022-12-10T12:49:18;3.70;33.70
1391;DHT22;690;51.454;7.194;2022-12-10T12:51:53;3.70;31.20
1391;DHT22;690;51.454;7.194;2022-12-10T12:54:20;3.70;21.90
1391;DHT22;690;51.454;7.194;2022-12-10T12:57:03;3.70;1.00
1391;DHT22;690;51.454;7.194;2022-12-10T12:59:40;3.70;1.00
1391;DHT22;690;51.454;7.194;2022-12-10T13:02:19;3.60;1.00
1391;DHT22;690;51.454;7.194;2022-12-10T13:04:48;3.60;1.00
1391;DHT22;690;51.454;7.194;2022-12-10T13:07:32;3.60;1.00
1391;DHT22;690;51.454;7.194;2022-12-10T13:10:43;3.60;3.70
1391;DHT22;690;51.454;7.194;2022-12-10T13:13:22;3.60;2.50
1391;DHT22;690;51.454;7.194;2022-12-10T13:15:51;3.50;1.00
1391;DHT22;690;51.454;7.194;2022-12-10T13:18:37;3.50;1.00
1391;DHT22;690;51.454;7.194;2022-12-10T13:21:32;3.50;1.00
1391;DHT22;690;51.454;7.194;2022-12-10T13:24:09;3.50;1.00
1391;DHT22;690;51.454;7.194;2022-12-10T13:26:41;3.50;1.00
1391;DHT22;690;51.454;7.194;2022-12-10T13:29:28;3.60;1.00
1391;DHT22;690;51.454;7.194;2022-12-10T13:32:01;3.60;1.00
1391;DHT22;690;51.454;7.194;2022-12-10T13:34:34;3.60;1.00
1391;DHT22;690;51.454;7.194;2022-12-10T13:37:29;3.70;1.00
1391;DHT22;690;51.454;7.194;2022-12-10T13:40:13;3.70;1.00
1391;DHT22;690;51.454;7.194;2022-12-10T13:42:43;3.70;1.00
1391;DHT22;690;51.454;7.194;2022-12-10T13:45:32;3.70;1.00
1391;DHT22;690;51.454;7.194;2022-12-10T13:48:28;3.70;1.00
1391;DHT22;690;51.454;7.194;2022-12-10T13:51:15;3.70;1.00
1391;DHT22;690;51.454;7.194;2022-12-10T13:53:54;3.70;1.00
1391;DHT22;690;51.454;7.194;2022-12-10T13:56:29;3.70;1.00
1391;DHT22;690;51.454;7.194;2022-12-10T13:59:09;3.70;1.00
1391;DHT22;690;51.454;7.194;2022-12-10T14:01:46;3.70;1.00
1391;DHT22;690;51.454;7.194;2022-12-10T14:04:30;3.70;1.00
1391;DHT22;690;51.454;7.194;2022-12-10T14:06:58;3.70;1.00
1391;DHT22;690;51.454;7.194;2022-12-10T14:09:28;3.80;1.00
1391;DHT22;690;51.454;7.194;2022-12-10T14:12:02;3.80;1.00
1391;DHT22;690;51.454;7.194;2022-12-10T14:14:33;3.80;1.00
1391;DHT22;690;51.454;7.194;2022-12-10T14:17:02;3.80;1.00
1391;DHT22;690;51.454;7.194;2022-12-10T14:19:30;3.80;1.00
1391;DHT22;690;51.454;7.194;2022-12-10T14:22:04;3.80;1.00
1391;DHT22;690;51.454;7.194;2022-12-10T14:24:34;3.70;1.00
1391;DHT22;690;51.454;7.194;2022-12-10T14:27:12;3.70;1.00
1391;DHT22;690;51.454;7.194;2022-12-10T14:29:44;3.70;1.00
1391;DHT22;690;51.454;7.194;2022-12-10T14:32:13;3.70;1.00
1391;DHT22;690;51.454;7.194;2022-12-10T14:34:41;3.70;1.00
1391;DHT22;690;51.454;7.194;2022-12-10T14:37:11;3.70;1.00
1391;DHT22;690;51.454;7.194;2022-12-10T14:39:40;3.70;1.00
1391;DHT22;690;51.454;7.194;2022-12-10T14:42:13;3.60;1.00
1391;DHT22;690;51.454;7.194;2022-12-10T14:44:41;3.60;1.00
1391;DHT22;690;51.454;7.194;2022-12-10T14:47:14;3.60;1.00
1391;DHT22;690;51.454;7.194;2022-12-10T14:49:42;3.60;1.00
1391;DHT22;690;51.454;7.194;2022-12-10T14:52:12;3.60;1.00
1391;DHT22;690;51.454;7.194;2022-12-10T14:54:39;3.60;1.00
1391;DHT22;690;51.454;7.194;2022-12-10T14:57:12;3.60;1.00
1391;DHT22;690;51.454;7.194;2022-12-10T14:59:43;3.60;1.00
1391;DHT22;690;51.454;7.194;2022-12-10T15:02:16;3.60;1.00
1391;DHT22;690;51.454;7.194;2022-12-10T15:04:47;3.60;1.00
1391;DHT22;690;51.454;7.194;2022-12-10T15:07:18;3.70;1.00
1391;DHT22;690;51.454;7.194;2022-12-10T15:09:46;3.60;1.00
1391;DHT22;690;51.454;7.194;2022-12-10T15:12:28;3.60;1.00
1391;DHT22;690;51.454;7.194;2022-12-10T15:15:07;3.60;1.00
1391;DHT22;690;51.454;7.194;2022-12-10T15:17:40;3.60;1.00
1391;DHT22;690;51.454;7.194;2022-12-10T15:20:26;3.60;1.00
1391;DHT22;690;51.454;7.194;2022-12-10T15:22:54;3.60;1.00
1391;DHT22;690;51.454;7.194;2022-12-10T15:25:24;3.60;1.00
1391;DHT22;690;51.454;7.194;2022-12-10T15:27:57;3.70;1.00
1391;DHT22;690;51.454;7.194;2022-12-10T15:30:34;3.60;1.00
1391;DHT22;690;51.454;7.194;2022-12-10T15:33:25;3.60;1.00
1391;DHT22;690;51.454;7.194;2022-12-10T15:35:54;3.60;1.00
1391;DHT22;690;51.454;7.194;2022-12-10T15:38:24;3.60;1.00
1391;DHT22;690;51.454;7.194;2022-12-10T15:40:57;3.50;1.00
1391;DHT22;690;51.454;7.194;2022-12-10T15:43:28;3.50;1.00
1391;DHT22;690;51.454;7.194;2022-12-10T15:45:56;3.50;1.00
1391;DHT22;690;51.454;7.194;2022-12-10T15:48:26;3.50;1.00
1391;DHT22;690;51.454;7.194;2022-12-10T15:50:53;3.50;1.00
1391;DHT22;690;51.454;7.194;2022-12-10T15:53:25;3.50;1.00
1391;DHT22;690;51.454;7.194;2022-12-10T15:55:53;3.50;1.00
1391;DHT22;690;51.454;7.194;2022-12-10T15:58:20;3.50;1.00
1391;DHT22;690;51.454;7.194;2022-12-10T16:00:49;3.50;1.00
1391;DHT22;690;51.454;7.194;2022-12-10T16:03:17;3.50;1.00
1391;DHT22;690;51.454;7.194;2022-12-10T16:05:46;3.50;1.00
1391;DHT22;690;51.454;7.194;2022-12-10T16:08:18;3.50;1.00
1391;DHT22;690;51.454;7.194;2022-12-10T16:10:47;3.50;1.00
1391;DHT22;690;51.454;7.194;2022-12-10T16:13:18;3.60;1.00
1391;DHT22;690;51.454;7.194;2022-12-10T16:15:50;3.60;1.00
1391;DHT22;690;51.454;7.194;2022-12-10T16:18:18;3.50;1.00
1391;DHT22;690;51.454;7.194;2022-12-10T16:20:45;3.50;1.00
1391;DHT22;690;51.454;7.194;2022-12-10T16:23:12;3.50;1.00
1391;DHT22;690;51.454;7.194;2022-12-10T16:25:40;3.50;1.00
1391;DHT22;690;51.454;7.194;2022-12-10T16:28:14;3.50;1.00
1391;DHT22;690;51.454;7.194;2022-12-10T16:30:43;3.50;1.00
1391;DHT22;690;51.454;7.194;2022-12-10T16:33:12;3.40;1.00
1391;DHT22;690;51.454;7.194;2022-12-10T16:35:39;3.40;1.00
1391;DHT22;690;51.454;7.194;2022-12-10T16:38:07;3.40;1.00
1391;DHT22;690;51.454;7.194;2022-12-10T16:40:35;3.40;1.00
1391;DHT22;690;51.454;7.194;2022-12-10T16:43:02;3.40;1.00
1391;DHT22;690;51.454;7.194;2022-12-10T16:45:34;3.40;1.00
1391;DHT22;690;51.454;7.194;2022-12-10T16:48:01;3.40;1.00
1391;DHT22;690;51.454;7.194;2022-12-10T16:50:30;3.40;1.00
1391;DHT22;690;51.454;7.194;2022-12-10T16:52:57;3.40;1.00
1391;DHT22;690;51.454;7.194;2022-12-10T16:55:28;3.40;1.00
1391;DHT22;690;51.454;7.194;2022-12-10T16:57:54;3.40;1.00
1391;DHT22;690;51.454;7.194;2022-12-10T17:00:23;3.50;1.00
1391;DHT22;690;51.454;7.194;2022-12-10T17:02:52;3.50;1.00
1391;DHT22;690;51.454;7.194;2022-12-10T17:05:24;3.50;1.00
1391;DHT22;690;51.454;7.194;2022-12-10T17:07:55;3.50;1.00
1391;DHT22;690;51.454;7.194;2022-12-10T17:10:22;3.50;1.00
1391;DHT22;690;51.454;7.194;2022-12-10T17:13:14;3.50;1.00